Time;durP1;ratioP1;P1;durP2;ratioP2;P2;SDS_P1;SDS_P2;PMS_P1;PMS_P2;Temp;Humidity;BMP_temperature;BMP_pressure;BME280_temperature;BME280_humidity;BME280_pressure;Samples;Min_cycle;Max_cycle;Signal;HPM_P1;HPM_P2
2021/12/01 00:00:59;;;;;;;1.20;1.10;;;8.80;99.90;;;;;;5052585;28;20217;-46
2021/12/01 00:03:25;;;;;;;1.60;1.20;;;8.80;99.90;;;;;;5054123;28;20176;-48
2021/12/01 00:05:51;;;;;;;1.10;1.00;;;8.80;99.90;;;;;;5056872;28;20191;-48
2021/12/01 00:08:17;;;;;;;2.33;1.00;;;8.80;99.90;;;;;;5056571;28;20176;-47
2021/12/01 00:10:43;;;;;;;2.73;0.90;;;8.80;99.90;;;;;;5056126;28;20207;-47
2021/12/01 00:13:13;;;;;;;0.80;0.80;;;8.90;99.90;;;;;;5056218;28;20259;-47
2021/12/01 00:15:40;;;;;;;1.13;0.80;;;8.80;99.90;;;;;;5056108;28;20180;-48
2021/12/01 00:18:06;;;;;;;0.87;0.87;;;8.90;99.90;;;;;;5056097;28;20175;-48
2021/12/01 00:20:32;;;;;;;2.10;1.10;;;8.80;99.90;;;;;;5038151;28;20176;-48
2021/12/01 00:22:59;;;;;;;2.33;0.97;;;8.90;99.90;;;;;;5056031;28;20190;-49
2021/12/01 00:25:26;;;;;;;1.20;1.10;;;8.80;99.90;;;;;;5038065;28;20266;-48
2021/12/01 00:27:53;;;;;;;2.13;0.90;;;8.80;99.90;;;;;;5055929;28;20203;-48
2021/12/01 00:30:19;;;;;;;2.57;1.20;;;8.80;99.90;;;;;;5055845;28;20200;-48
2021/12/01 00:32:45;;;;;;;1.00;1.00;;;8.80;99.90;;;;;;5056017;28;20196;-48
2021/12/01 00:35:11;;;;;;;1.70;1.13;;;8.80;99.90;;;;;;5037851;28;20184;-49
2021/12/01 00:37:38;;;;;;;1.13;1.03;;;8.80;99.90;;;;;;5037872;28;20203;-47
2021/12/01 00:40:06;;;;;;;1.17;1.07;;;8.80;99.90;;;;;;5055735;28;20664;-48
2021/12/01 00:42:32;;;;;;;1.80;1.00;;;8.80;99.90;;;;;;5037065;28;20208;-46
2021/12/01 00:45:01;;;;;;;6.03;1.00;;;8.80;99.90;;;;;;5054218;28;20219;-49
2021/12/01 00:48:10;;;;;;;2.13;1.20;;;8.80;99.90;;;;;;5054427;28;20191;-47
2021/12/01 00:50:31;;;;;;;1.30;1.20;;;8.80;99.90;;;;;;5043368;28;20242;-49
2021/12/01 00:53:00;;;;;;;0.83;0.67;;;8.80;99.90;;;;;;5036576;28;20263;-49
2021/12/01 00:55:26;;;;;;;2.27;0.90;;;8.80;99.90;;;;;;5054307;28;20646;-48
2021/12/01 00:57:52;;;;;;;1.67;1.00;;;8.80;99.90;;;;;;5054347;28;20173;-48
2021/12/01 01:00:22;;;;;;;2.77;1.00;;;8.80;99.90;;;;;;5054283;28;20219;-49
2021/12/01 01:02:48;;;;;;;1.37;0.50;;;8.80;99.90;;;;;;5055255;28;20207;-49
2021/12/01 01:05:14;;;;;;;2.00;1.33;;;8.80;99.90;;;;;;5054373;28;20630;-50
2021/12/01 01:07:40;;;;;;;1.30;1.07;;;8.70;99.90;;;;;;5054469;28;20212;-48
2021/12/01 01:18:22;;;;;;;1.43;1.07;;;8.70;99.90;;;;;;5054488;28;20172;-47
2021/12/01 01:20:48;;;;;;;1.03;0.97;;;8.70;99.90;;;;;;5054446;28;20196;-40
2021/12/01 01:23:14;;;;;;;0.83;0.83;;;8.70;99.90;;;;;;5053847;28;20669;-43
2021/12/01 01:25:39;;;;;;;1.03;0.83;;;8.70;99.90;;;;;;5054383;28;20222;-43
2021/12/01 01:28:05;;;;;;;0.60;0.60;;;8.70;99.90;;;;;;5054141;28;20180;-44
2021/12/01 01:30:31;;;;;;;2.70;1.03;;;8.70;99.90;;;;;;5053656;28;20207;-43
2021/12/01 01:32:57;;;;;;;0.80;0.80;;;8.70;99.90;;;;;;5053736;28;20180;-41
2021/12/01 01:35:23;;;;;;;0.87;0.83;;;8.70;99.90;;;;;;5053965;28;20227;-42
2021/12/01 01:37:48;;;;;;;1.33;0.97;;;8.70;99.90;;;;;;5053660;28;20178;-43
2021/12/01 01:40:14;;;;;;;1.00;1.00;;;8.70;99.90;;;;;;5053597;28;20179;-41
2021/12/01 01:42:40;;;;;;;2.67;1.10;;;8.70;99.90;;;;;;5017005;28;1060153;-42
2021/12/01 01:45:06;;;;;;;1.77;1.07;;;8.70;99.90;;;;;;5054779;28;20180;-44
2021/12/01 01:47:32;;;;;;;1.83;0.87;;;8.60;99.90;;;;;;5054688;28;20233;-44
2021/12/01 01:52:34;;;;;;;1.43;1.33;;;8.60;99.90;;;;;;5055599;28;20203;-41
2021/12/01 01:54:59;;;;;;;1.30;1.07;;;8.60;99.90;;;;;;5054333;28;20172;-43
2021/12/01 01:57:25;;;;;;;2.20;1.50;;;8.60;99.90;;;;;;5054551;28;20677;-42
2021/12/01 01:59:51;;;;;;;2.00;1.50;;;8.60;99.90;;;;;;5054323;28;20268;-44
2021/12/01 02:02:17;;;;;;;3.60;1.70;;;8.60;99.90;;;;;;5054068;28;20208;-41
2021/12/01 02:04:43;;;;;;;2.27;2.00;;;8.60;99.90;;;;;;5054149;28;20180;-43
2021/12/01 02:07:09;;;;;;;2.30;2.10;;;8.60;99.90;;;;;;5054075;28;20548;-42
2021/12/01 02:09:35;;;;;;;1.30;1.20;;;8.60;99.90;;;;;;5036302;28;20180;-42
2021/12/01 02:12:02;;;;;;;2.23;2.03;;;8.60;99.90;;;;;;5036293;28;20223;-41
2021/12/01 02:14:29;;;;;;;3.20;2.27;;;8.60;99.90;;;;;;5054187;28;20215;-42
2021/12/01 02:16:56;;;;;;;3.00;2.17;;;8.60;99.90;;;;;;5054127;28;20177;-41
2021/12/01 02:19:22;;;;;;;2.17;1.97;;;8.60;99.90;;;;;;5053852;28;20198;-43
2021/12/01 02:21:48;;;;;;;5.63;2.83;;;8.60;99.90;;;;;;5053655;28;20207;-41
2021/12/01 02:24:15;;;;;;;2.47;2.07;;;8.60;99.90;;;;;;5053795;28;20638;-42
2021/12/01 02:26:44;;;;;;;4.27;2.47;;;8.60;99.90;;;;;;5053791;28;20234;-43
2021/12/01 02:29:12;;;;;;;5.00;2.93;;;8.60;99.90;;;;;;5053759;28;20172;-45
2021/12/01 02:31:39;;;;;;;3.87;3.47;;;8.60;99.90;;;;;;5053786;28;20243;-43
2021/12/01 02:34:09;;;;;;;2.50;2.13;;;8.60;99.90;;;;;;5053572;28;20176;-44
2021/12/01 02:36:36;;;;;;;6.67;3.70;;;8.60;99.90;;;;;;5053519;28;20203;-42
2021/12/01 02:39:05;;;;;;;5.27;3.30;;;8.60;99.90;;;;;;5053835;28;20232;-41
2021/12/01 02:41:32;;;;;;;3.17;2.27;;;8.60;99.90;;;;;;5054022;28;20198;-42
2021/12/01 02:44:00;;;;;;;3.13;2.83;;;8.60;99.90;;;;;;5035551;28;20204;-45
2021/12/01 02:46:26;;;;;;;2.63;2.37;;;8.60;99.90;;;;;;5053671;28;20180;-44
2021/12/01 02:48:55;;;;;;;3.23;2.53;;;8.60;99.90;;;;;;5053376;28;20172;-44
2021/12/01 02:51:24;;;;;;;3.43;3.13;;;8.60;99.90;;;;;;5035343;28;20243;-43
2021/12/01 02:53:50;;;;;;;4.50;3.93;;;8.60;99.90;;;;;;5053412;28;20263;-44
2021/12/01 02:56:17;;;;;;;5.53;3.57;;;8.60;99.90;;;;;;5053293;28;20606;-44
2021/12/01 02:58:44;;;;;;;3.93;3.43;;;8.60;99.90;;;;;;5053461;28;20171;-44
2021/12/01 03:01:16;;;;;;;8.20;4.63;;;8.60;99.90;;;;;;5035495;28;20220;-43
2021/12/01 03:03:42;;;;;;;3.97;3.50;;;8.60;99.90;;;;;;5053633;28;20164;-43
2021/12/01 03:06:08;;;;;;;4.87;3.87;;;8.60;99.90;;;;;;5053491;28;20590;-42
2021/12/01 03:08:35;;;;;;;8.07;5.20;;;8.50;99.90;;;;;;5052895;28;20179;-43
2021/12/01 03:11:02;;;;;;;4.60;3.93;;;8.60;99.90;;;;;;5052990;28;20212;-43
2021/12/01 03:13:28;;;;;;;6.07;4.53;;;8.50;99.90;;;;;;5053729;28;20267;-49
2021/12/01 03:15:55;;;;;;;7.07;4.23;;;8.50;99.90;;;;;;5053181;28;20218;-49
2021/12/01 03:18:21;;;;;;;6.03;4.60;;;8.50;99.90;;;;;;5053222;28;20680;-48
2021/12/01 03:20:47;;;;;;;4.27;3.80;;;8.50;99.90;;;;;;5053186;28;20227;-48
2021/12/01 03:23:14;;;;;;;7.27;5.23;;;8.50;99.90;;;;;;5053079;28;20176;-49
2021/12/01 03:25:40;;;;;;;6.60;4.60;;;8.50;99.90;;;;;;5053063;28;20292;-48
2021/12/01 03:28:07;;;;;;;7.00;4.30;;;8.50;99.90;;;;;;5035317;28;20176;-48
2021/12/01 03:30:34;;;;;;;6.63;4.43;;;8.50;99.90;;;;;;5052879;28;20219;-47
2021/12/01 03:33:09;;;;;;;5.83;4.03;;;8.50;99.90;;;;;;5053334;28;20545;-49
2021/12/01 03:35:40;;;;;;;5.83;4.07;;;8.40;99.90;;;;;;5053557;28;20172;-48
2021/12/01 03:38:06;;;;;;;4.77;3.97;;;8.40;99.90;;;;;;5053732;28;20149;-48
2021/12/01 03:40:32;;;;;;;5.17;4.53;;;8.40;99.90;;;;;;5039173;28;20176;-49
2021/12/01 03:42:58;;;;;;;5.40;4.10;;;8.30;99.90;;;;;;5057525;28;20231;-49
2021/12/01 03:45:24;;;;;;;3.63;3.33;;;8.30;99.90;;;;;;5057125;28;20207;-48
2021/12/01 03:47:50;;;;;;;5.33;3.53;;;8.20;99.90;;;;;;5056772;28;20215;-50
2021/12/01 03:50:16;;;;;;;3.77;2.77;;;8.20;99.90;;;;;;5057209;28;20526;-43
2021/12/01 03:52:41;;;;;;;4.97;3.70;;;8.20;99.90;;;;;;5056561;28;20206;-40
2021/12/01 03:55:08;;;;;;;3.90;3.40;;;8.20;99.90;;;;;;5056622;28;20199;-42
2021/12/01 03:57:34;;;;;;;4.23;3.57;;;8.20;99.90;;;;;;5038948;28;20173;-43
2021/12/01 04:00:01;;;;;;;2.20;1.83;;;8.10;99.90;;;;;;5056501;28;20538;-41
2021/12/01 04:02:27;;;;;;;3.80;2.83;;;8.10;99.90;;;;;;5056661;28;20196;-42
2021/12/01 04:04:52;;;;;;;4.20;2.97;;;8.10;99.90;;;;;;5056450;28;20173;-45
2021/12/01 04:07:18;;;;;;;4.57;3.30;;;8.10;99.90;;;;;;5056391;28;20172;-45
2021/12/01 04:09:45;;;;;;;3.37;2.67;;;8.10;99.90;;;;;;5056565;28;20239;-42
2021/12/01 04:12:11;;;;;;;4.27;2.73;;;8.10;99.90;;;;;;5038354;28;20218;-44
2021/12/01 04:14:37;;;;;;;2.57;2.03;;;8.10;99.90;;;;;;5056228;28;20169;-42
2021/12/01 04:17:04;;;;;;;2.40;1.90;;;8.00;99.90;;;;;;5056208;28;20215;-43
2021/12/01 04:19:29;;;;;;;4.90;2.20;;;8.00;99.90;;;;;;5056116;28;20714;-43
2021/12/01 04:21:55;;;;;;;4.97;2.80;;;8.00;99.90;;;;;;5056050;28;20279;-42
2021/12/01 04:24:22;;;;;;;4.60;2.80;;;8.00;99.90;;;;;;5056093;28;20256;-45
2021/12/01 04:26:48;;;;;;;3.67;2.63;;;8.00;99.90;;;;;;5055992;28;20183;-45
2021/12/01 04:29:14;;;;;;;4.07;3.30;;;8.00;99.90;;;;;;5056196;28;20157;-43
2021/12/01 04:31:40;;;;;;;3.90;3.07;;;8.00;99.90;;;;;;5055754;28;20211;-42
2021/12/01 04:34:07;;;;;;;4.00;2.80;;;8.00;99.90;;;;;;5055903;28;20251;-42
2021/12/01 04:36:36;;;;;;;3.93;2.40;;;8.00;99.90;;;;;;5055781;28;20176;-44
2021/12/01 04:39:05;;;;;;;4.10;2.80;;;8.00;99.90;;;;;;5055774;28;20179;-45
2021/12/01 04:41:37;;;;;;;3.67;2.87;;;8.00;99.90;;;;;;5055939;28;20208;-41
2021/12/01 04:44:08;;;;;;;3.90;2.33;;;8.00;99.90;;;;;;5056070;28;20166;-42
2021/12/01 04:46:40;;;;;;;3.30;2.40;;;8.00;99.90;;;;;;5055877;28;20165;-42
2021/12/01 04:49:07;;;;;;;5.37;2.37;;;8.00;99.90;;;;;;5055293;28;20164;-41
2021/12/01 04:51:33;;;;;;;1.53;1.30;;;8.00;99.90;;;;;;5054793;28;20261;-43
2021/12/01 04:53:59;;;;;;;3.20;2.27;;;8.00;99.90;;;;;;5055745;28;20184;-43
2021/12/01 04:56:25;;;;;;;2.83;1.70;;;8.10;99.90;;;;;;5055708;28;20218;-42
2021/12/01 04:58:50;;;;;;;2.37;1.87;;;8.10;99.90;;;;;;5037916;28;20204;-42
2021/12/01 05:01:17;;;;;;;3.07;2.10;;;8.10;99.90;;;;;;5037674;28;20212;-44
2021/12/01 05:03:43;;;;;;;1.87;1.67;;;8.10;99.90;;;;;;5057619;28;20654;-43
2021/12/01 05:06:12;;;;;;;2.23;2.03;;;8.10;99.90;;;;;;5056571;28;20187;-43
2021/12/01 05:08:38;;;;;;;2.63;2.03;;;8.10;99.90;;;;;;5055545;28;20223;-42
2021/12/01 05:11:03;;;;;;;2.10;1.70;;;8.10;99.90;;;;;;5055711;28;20607;-42
2021/12/01 05:13:29;;;;;;;3.43;1.70;;;8.10;99.90;;;;;;5055552;28;20171;-44
2021/12/01 05:15:55;;;;;;;4.50;1.20;;;8.10;99.90;;;;;;5055271;28;20645;-42
2021/12/01 05:18:21;;;;;;;2.70;1.57;;;8.10;99.90;;;;;;5055362;28;20180;-42
2021/12/01 05:20:46;;;;;;;1.87;1.17;;;8.10;99.90;;;;;;5055283;28;20204;-46
2021/12/01 05:23:15;;;;;;;2.67;1.37;;;8.10;99.90;;;;;;5055596;28;20184;-43
2021/12/01 05:25:44;;;;;;;1.23;1.13;;;8.10;99.90;;;;;;5055028;28;20178;-42
2021/12/01 05:28:10;;;;;;;1.93;1.57;;;8.00;99.90;;;;;;5054963;28;20267;-43
2021/12/01 05:30:36;;;;;;;1.77;0.93;;;8.00;99.90;;;;;;5054802;28;20294;-42
2021/12/01 05:33:08;;;;;;;1.87;1.13;;;8.00;99.90;;;;;;5054950;28;20176;-42
2021/12/01 05:35:35;;;;;;;2.40;1.60;;;8.00;99.90;;;;;;5054673;28;20622;-44
2021/12/01 05:38:02;;;;;;;1.80;1.57;;;8.00;99.90;;;;;;5054911;28;20179;-44
2021/12/01 05:40:28;;;;;;;2.13;1.30;;;8.00;99.90;;;;;;5036803;28;20208;-40
2021/12/01 05:42:54;;;;;;;1.13;1.03;;;8.00;99.90;;;;;;5036660;28;20219;-41
2021/12/01 05:45:20;;;;;;;1.80;1.30;;;8.00;99.90;;;;;;5065001;23;20202;-48
2021/12/01 05:47:45;;;;;;;3.60;1.60;;;8.00;99.90;;;;;;5035743;28;20519;-47
2021/12/01 05:50:11;;;;;;;3.37;1.07;;;8.00;99.90;;;;;;5035396;28;20181;-47
2021/12/01 05:52:37;;;;;;;1.17;1.00;;;8.00;99.90;;;;;;5053085;28;20246;-48
2021/12/01 05:55:04;;;;;;;1.70;1.43;;;8.10;99.90;;;;;;5055061;28;20573;-47
2021/12/01 05:57:30;;;;;;;0.83;0.83;;;8.10;99.90;;;;;;5054901;28;20711;-47
2021/12/01 05:59:55;;;;;;;1.63;1.53;;;8.10;99.90;;;;;;5054903;28;20199;-48
2021/12/01 06:02:21;;;;;;;2.57;1.27;;;8.10;99.90;;;;;;5054440;28;20241;-48
2021/12/01 06:04:48;;;;;;;1.23;1.03;;;8.10;99.90;;;;;;5055092;28;20187;-48
2021/12/01 06:07:13;;;;;;;1.57;1.10;;;8.10;99.90;;;;;;5054749;28;20599;-48
2021/12/01 06:09:39;;;;;;;1.43;1.10;;;8.10;99.90;;;;;;5054528;28;20226;-47
2021/12/01 06:12:06;;;;;;;0.77;0.77;;;8.10;99.90;;;;;;5054475;28;20208;-47
2021/12/01 06:14:33;;;;;;;0.87;0.87;;;8.20;99.90;;;;;;5054718;28;20185;-47
2021/12/01 06:16:59;;;;;;;1.77;1.10;;;8.20;99.90;;;;;;5054765;28;20180;-48
2021/12/01 06:19:25;;;;;;;1.10;0.90;;;8.20;99.90;;;;;;5054666;28;20186;-46
2021/12/01 06:21:50;;;;;;;0.80;0.80;;;8.20;99.90;;;;;;5054934;28;20208;-48
2021/12/01 06:24:16;;;;;;;2.40;0.97;;;8.20;99.90;;;;;;5054063;28;20269;-48
2021/12/01 06:26:42;;;;;;;2.00;0.93;;;8.20;99.90;;;;;;5054326;28;20172;-46
2021/12/01 06:29:07;;;;;;;0.77;0.70;;;8.30;99.90;;;;;;5037009;28;20176;-47
2021/12/01 06:31:33;;;;;;;1.50;0.70;;;8.30;99.90;;;;;;5054017;28;20215;-48
2021/12/01 06:33:59;;;;;;;2.30;0.80;;;8.40;99.90;;;;;;5054303;28;20230;-48
2021/12/01 06:36:26;;;;;;;1.83;0.90;;;8.30;99.90;;;;;;5054105;28;20258;-46
2021/12/01 06:38:51;;;;;;;0.70;0.70;;;8.30;99.90;;;;;;5053819;28;20212;-47
2021/12/01 06:41:17;;;;;;;0.63;0.63;;;8.30;99.90;;;;;;5053797;28;20278;-47
2021/12/01 06:43:43;;;;;;;1.00;0.90;;;8.30;99.90;;;;;;5053892;28;20646;-46
2021/12/01 06:46:09;;;;;;;0.60;0.50;;;8.40;99.90;;;;;;5053692;28;20648;-49
2021/12/01 06:48:34;;;;;;;1.00;0.70;;;8.40;99.90;;;;;;5053682;28;20183;-48
2021/12/01 06:51:00;;;;;;;1.03;0.87;;;8.40;99.90;;;;;;5053661;28;20239;-48
2021/12/01 06:53:26;;;;;;;0.30;0.30;;;8.40;99.90;;;;;;5053563;28;20176;-47
2021/12/01 06:55:53;;;;;;;0.93;0.70;;;8.40;99.90;;;;;;5053403;28;20184;-48
2021/12/01 06:58:19;;;;;;;1.80;0.67;;;8.50;99.90;;;;;;5053387;28;20175;-48
2021/12/01 07:00:44;;;;;;;0.90;0.60;;;8.40;99.90;;;;;;5053440;28;20176;-48
2021/12/01 07:03:10;;;;;;;1.10;0.80;;;8.40;99.90;;;;;;5053685;28;20733;-47
2021/12/01 07:05:36;;;;;;;0.50;0.50;;;8.40;99.90;;;;;;5053505;28;20638;-49
2021/12/01 07:08:03;;;;;;;0.60;0.60;;;8.40;99.90;;;;;;5053486;28;20582;-48
2021/12/01 07:10:29;;;;;;;0.40;0.40;;;8.40;99.90;;;;;;5053215;28;20717;-47
2021/12/01 07:12:54;;;;;;;1.13;0.70;;;8.40;99.90;;;;;;5052498;28;20247;-49
2021/12/01 07:15:20;;;;;;;0.50;0.50;;;8.40;99.90;;;;;;5053369;28;20630;-48
2021/12/01 07:17:45;;;;;;;0.47;0.47;;;8.40;99.90;;;;;;5053759;28;20234;-47
2021/12/01 07:20:12;;;;;;;0.67;0.67;;;8.40;99.90;;;;;;5035585;28;20192;-48
2021/12/01 07:22:38;;;;;;;0.90;0.60;;;8.40;99.90;;;;;;5035465;28;20337;-48
2021/12/01 07:25:05;;;;;;;0.50;0.50;;;8.40;99.90;;;;;;5053355;28;20180;-48
2021/12/01 07:27:31;;;;;;;0.37;0.37;;;8.40;99.90;;;;;;5053282;28;20184;-50
2021/12/01 07:29:56;;;;;;;0.40;0.40;;;8.50;99.90;;;;;;5053329;28;20179;-48
2021/12/01 07:32:22;;;;;;;0.40;0.40;;;8.40;99.90;;;;;;5053484;28;20211;-48
2021/12/01 07:34:47;;;;;;;0.50;0.50;;;8.50;99.90;;;;;;5053612;28;20227;-49
2021/12/01 07:37:15;;;;;;;0.30;0.30;;;8.50;99.90;;;;;;5036282;28;20187;-48
2021/12/01 07:39:42;;;;;;;0.30;0.30;;;8.50;99.90;;;;;;5052999;28;20272;-48
2021/12/01 07:42:08;;;;;;;0.33;0.33;;;8.50;99.90;;;;;;5053241;28;20572;-48
2021/12/01 07:44:34;;;;;;;0.40;0.37;;;8.50;99.90;;;;;;5035483;28;20263;-48
2021/12/01 07:47:00;;;;;;;0.30;0.30;;;8.50;99.90;;;;;;5052933;28;20631;-47
2021/12/01 07:49:26;;;;;;;0.90;0.37;;;8.50;99.90;;;;;;5053347;28;20207;-48
2021/12/01 07:51:51;;;;;;;0.93;0.43;;;8.50;99.90;;;;;;5052911;28;20216;-47
2021/12/01 07:54:17;;;;;;;0.23;0.23;;;8.50;99.90;;;;;;5053029;28;20522;-47
2021/12/01 07:56:43;;;;;;;0.30;0.30;;;8.50;99.90;;;;;;5052986;28;20251;-47
2021/12/01 07:59:11;;;;;;;0.30;0.30;;;8.60;99.90;;;;;;5035131;28;20180;-48
2021/12/01 08:01:37;;;;;;;0.30;0.30;;;8.50;99.90;;;;;;5052889;28;20681;-47
2021/12/01 08:04:03;;;;;;;0.40;0.40;;;8.50;99.90;;;;;;5052799;28;20173;-48
2021/12/01 08:06:32;;;;;;;0.30;0.30;;;8.50;99.90;;;;;;5052805;28;20187;-48
2021/12/01 08:09:00;;;;;;;0.37;0.30;;;8.50;99.90;;;;;;5052956;28;20219;-48
2021/12/01 08:11:28;;;;;;;0.40;0.40;;;8.50;99.90;;;;;;5034849;28;20299;-47
2021/12/01 08:13:54;;;;;;;0.30;0.30;;;8.50;99.90;;;;;;5052843;28;20183;-48
2021/12/01 08:16:19;;;;;;;0.43;0.43;;;8.40;99.90;;;;;;5052753;28;20184;-47
2021/12/01 08:18:51;;;;;;;0.27;0.27;;;8.50;99.90;;;;;;5034988;28;20208;-48
2021/12/01 08:21:17;;;;;;;2.47;0.50;;;8.50;99.90;;;;;;5052904;28;20192;-47
2021/12/01 08:23:42;;;;;;;1.73;0.33;;;8.50;99.90;;;;;;5053543;28;20203;-48
2021/12/01 08:26:08;;;;;;;0.40;0.40;;;8.50;99.90;;;;;;5056821;28;20214;-47
2021/12/01 08:28:33;;;;;;;0.30;0.30;;;8.50;99.90;;;;;;5056352;28;20192;-48
2021/12/01 08:30:59;;;;;;;0.30;0.30;;;8.60;99.90;;;;;;5056295;28;20251;-47
2021/12/01 08:33:25;;;;;;;0.20;0.20;;;8.60;99.90;;;;;;5056644;28;20203;-47
2021/12/01 08:35:51;;;;;;;0.30;0.30;;;8.60;99.90;;;;;;5056590;28;20192;-47
2021/12/01 08:38:17;;;;;;;0.30;0.30;;;8.60;99.90;;;;;;5056652;28;20641;-48
2021/12/01 08:40:42;;;;;;;0.63;0.40;;;8.60;99.90;;;;;;5056437;28;20705;-48
2021/12/01 08:43:09;;;;;;;0.30;0.30;;;8.70;99.90;;;;;;5056807;28;20180;-47
2021/12/01 08:45:35;;;;;;;0.57;0.37;;;8.70;99.90;;;;;;5056390;28;20566;-47
2021/12/01 08:48:03;;;;;;;0.30;0.30;;;8.70;99.90;;;;;;5057099;28;20229;-47
2021/12/01 08:50:29;;;;;;;0.53;0.53;;;8.70;99.90;;;;;;5056714;28;20646;-45
2021/12/01 08:52:55;;;;;;;1.50;0.40;;;8.70;99.90;;;;;;5056138;28;20165;-45
2021/12/01 08:55:23;;;;;;;0.50;0.40;;;8.70;99.90;;;;;;5056066;28;20546;-44
2021/12/01 08:57:50;;;;;;;0.30;0.30;;;8.70;99.90;;;;;;5055746;28;20187;-45
2021/12/01 09:00:16;;;;;;;0.30;0.30;;;8.70;99.90;;;;;;5055758;28;20638;-47
2021/12/01 09:02:42;;;;;;;0.20;0.20;;;8.70;99.90;;;;;;5055423;28;20215;-45
2021/12/01 09:05:08;;;;;;;0.30;0.30;;;8.70;99.90;;;;;;5055672;28;20577;-47
2021/12/01 09:07:34;;;;;;;0.20;0.20;;;8.70;99.90;;;;;;5038242;28;20255;-46
2021/12/01 09:09:59;;;;;;;0.20;0.20;;;8.70;99.90;;;;;;5055780;28;20615;-49
2021/12/01 09:12:26;;;;;;;0.20;0.20;;;8.60;99.90;;;;;;5055540;28;20243;-45
2021/12/01 09:14:52;;;;;;;0.53;0.30;;;8.70;99.90;;;;;;5037690;28;20211;-47
2021/12/01 09:17:18;;;;;;;0.20;0.20;;;8.70;99.90;;;;;;5055316;28;20180;-47
2021/12/01 09:19:43;;;;;;;0.30;0.30;;;8.70;99.90;;;;;;5054987;28;20200;-46
2021/12/01 09:22:09;;;;;;;1.00;0.30;;;8.70;99.90;;;;;;5055026;28;20203;-46
2021/12/01 09:24:35;;;;;;;0.30;0.30;;;8.70;99.90;;;;;;5054989;28;20183;-48
2021/12/01 09:27:01;;;;;;;0.40;0.30;;;8.70;99.90;;;;;;5055311;28;20184;-46
2021/12/01 09:29:27;;;;;;;0.20;0.20;;;8.80;99.90;;;;;;5055180;28;20234;-46
2021/12/01 09:31:55;;;;;;;0.40;0.30;;;8.80;99.90;;;;;;5054848;28;20212;-47
2021/12/01 09:34:21;;;;;;;0.40;0.40;;;8.80;99.90;;;;;;5054671;28;20169;-47
2021/12/01 09:36:47;;;;;;;0.30;0.30;;;8.90;99.90;;;;;;5053860;28;20190;-45
2021/12/01 09:39:12;;;;;;;0.20;0.20;;;8.90;99.90;;;;;;5054746;28;20173;-48
2021/12/01 09:41:38;;;;;;;0.27;0.27;;;9.00;99.90;;;;;;5054432;28;20219;-47
2021/12/01 09:44:04;;;;;;;0.30;0.30;;;9.00;99.90;;;;;;5054690;28;20262;-48
2021/12/01 09:46:30;;;;;;;0.20;0.20;;;9.10;99.90;;;;;;5054556;28;20223;-47
2021/12/01 09:48:57;;;;;;;0.20;0.20;;;9.10;99.90;;;;;;5036753;28;20639;-46
2021/12/01 09:51:23;;;;;;;0.20;0.20;;;9.20;99.90;;;;;;5054952;28;20204;-49
2021/12/01 09:53:49;;;;;;;0.30;0.30;;;9.20;99.90;;;;;;5054747;28;20180;-47
2021/12/01 09:56:15;;;;;;;1.30;0.30;;;9.10;99.90;;;;;;5054670;28;20168;-49
2021/12/01 09:58:43;;;;;;;0.33;0.20;;;9.10;99.90;;;;;;5054637;28;20176;-49
2021/12/01 10:01:13;;;;;;;0.47;0.33;;;9.10;99.90;;;;;;5054508;28;20200;-48
2021/12/01 10:03:40;;;;;;;0.30;0.30;;;9.10;99.90;;;;;;5054190;28;20668;-49
2021/12/01 10:06:10;;;;;;;0.30;0.30;;;9.10;99.90;;;;;;5054474;28;20561;-49
2021/12/01 10:08:47;;;;;;;0.40;0.40;;;9.10;99.90;;;;;;5054079;28;20176;-48
2021/12/01 10:11:22;;;;;;;0.37;0.37;;;9.10;99.90;;;;;;5036155;28;20207;-49
2021/12/01 10:13:58;;;;;;;0.40;0.40;;;9.10;99.90;;;;;;5054460;28;20206;-48
2021/12/01 10:16:26;;;;;;;0.40;0.40;;;9.10;99.90;;;;;;5054013;28;20210;-48
2021/12/01 10:19:03;;;;;;;0.40;0.40;;;9.10;99.90;;;;;;5054281;28;20255;-48
2021/12/01 10:21:28;;;;;;;0.40;0.40;;;9.10;99.90;;;;;;5054158;28;20200;-48
2021/12/01 10:24:00;;;;;;;0.30;0.30;;;9.10;99.90;;;;;;5053770;28;20185;-47
2021/12/01 10:26:32;;;;;;;0.30;0.30;;;9.20;99.90;;;;;;5053822;28;20649;-48
2021/12/01 10:29:08;;;;;;;1.23;0.50;;;9.20;99.90;;;;;;5054068;28;20167;-49
2021/12/01 10:31:36;;;;;;;0.30;0.30;;;9.40;99.90;;;;;;5035658;28;20222;-48
2021/12/01 10:34:20;;;;;;;1.03;0.50;;;9.40;99.90;;;;;;5053656;28;20169;-48
2021/12/01 10:36:48;;;;;;;0.30;0.30;;;9.40;99.90;;;;;;5053818;28;20187;-47
2021/12/01 10:39:15;;;;;;;0.30;0.30;;;9.50;99.90;;;;;;5053612;28;20195;-48
2021/12/01 10:41:42;;;;;;;0.30;0.30;;;9.40;99.90;;;;;;5053522;28;20193;-48
2021/12/01 10:44:14;;;;;;;0.53;0.30;;;9.40;99.90;;;;;;5053899;28;20180;-47
2021/12/01 10:46:51;;;;;;;0.30;0.30;;;9.40;99.90;;;;;;5053298;28;20227;-49
2021/12/01 10:49:32;;;;;;;0.30;0.30;;;9.50;99.90;;;;;;5053771;28;20172;-49
2021/12/01 10:51:58;;;;;;;0.40;0.40;;;9.40;99.90;;;;;;5053389;28;20618;-48
2021/12/01 10:54:23;;;;;;;0.70;0.70;;;9.50;99.90;;;;;;5053452;28;20223;-49
2021/12/01 10:57:22;;;;;;;0.50;0.50;;;9.50;99.90;;;;;;5053476;28;20203;-49
2021/12/01 10:59:50;;;;;;;0.73;0.50;;;9.50;99.90;;;;;;5046530;28;20275;-49
2021/12/01 11:02:17;;;;;;;0.40;0.40;;;9.50;99.90;;;;;;5053186;28;20200;-49
2021/12/01 11:04:50;;;;;;;0.50;0.50;;;9.50;99.90;;;;;;5053280;28;20246;-47
2021/12/01 11:07:28;;;;;;;0.77;0.43;;;9.50;99.90;;;;;;5053291;28;20175;-48
2021/12/01 11:10:10;;;;;;;1.60;0.60;;;9.50;99.90;;;;;;5053108;28;20649;-48
2021/12/01 11:12:36;;;;;;;2.93;0.50;;;9.50;99.90;;;;;;5053268;28;20215;-48
2021/12/01 11:15:23;;;;;;;0.60;0.50;;;9.60;99.90;;;;;;5053191;28;20232;-49
2021/12/01 11:17:50;;;;;;;0.50;0.50;;;9.60;99.90;;;;;;5053158;28;20176;-48
2021/12/01 11:20:34;;;;;;;0.50;0.50;;;9.60;99.90;;;;;;5053171;28;20592;-49
2021/12/01 11:23:07;;;;;;;1.07;0.40;;;9.60;99.90;;;;;;5053288;28;20552;-49
2021/12/01 11:25:36;;;;;;;0.67;0.60;;;9.50;99.90;;;;;;5053461;28;20559;-49
2021/12/01 11:28:02;;;;;;;0.60;0.60;;;9.50;99.90;;;;;;5053811;28;20188;-46
2021/12/01 11:30:28;;;;;;;0.70;0.60;;;9.50;99.90;;;;;;5053240;28;20251;-47
2021/12/01 11:32:54;;;;;;;0.57;0.57;;;9.50;99.90;;;;;;5053893;28;20712;-47
2021/12/01 11:35:19;;;;;;;0.43;0.43;;;9.40;99.90;;;;;;5053297;28;20215;-48
2021/12/01 11:37:47;;;;;;;0.33;0.33;;;9.50;99.90;;;;;;5053578;28;20173;-47
2021/12/01 11:40:13;;;;;;;1.30;0.63;;;9.50;99.90;;;;;;5053242;28;20585;-46
2021/12/01 11:42:39;;;;;;;0.50;0.50;;;9.40;99.90;;;;;;5052756;28;20204;-48
2021/12/01 11:45:06;;;;;;;0.60;0.60;;;9.40;99.90;;;;;;5052955;28;20177;-47
2021/12/01 11:47:31;;;;;;;1.00;0.70;;;9.40;99.90;;;;;;5053737;28;20283;-49
2021/12/01 11:50:01;;;;;;;2.60;0.73;;;9.40;99.90;;;;;;5053059;28;20224;-48
2021/12/01 11:52:42;;;;;;;1.23;1.00;;;9.40;99.90;;;;;;5053294;28;20304;-47
2021/12/01 11:55:07;;;;;;;1.93;1.00;;;9.40;99.90;;;;;;5053170;28;20633;-48
2021/12/01 11:57:40;;;;;;;3.47;1.17;;;9.40;99.90;;;;;;5053109;28;20164;-47
2021/12/01 12:00:08;;;;;;;3.13;1.33;;;9.50;99.90;;;;;;5055350;28;20703;-46
2021/12/01 12:02:34;;;;;;;2.17;1.67;;;9.40;99.90;;;;;;5056823;28;20193;-48
2021/12/01 12:05:00;;;;;;;3.70;1.70;;;9.40;99.90;;;;;;5056810;28;20204;-48
2021/12/01 12:07:26;;;;;;;2.77;1.67;;;9.30;99.90;;;;;;5056610;28;20176;-47
2021/12/01 12:10:15;;;;;;;7.90;1.80;;;9.20;99.90;;;;;;5056546;28;20234;-48
2021/12/01 12:12:57;;;;;;;3.83;1.63;;;9.20;99.90;;;;;;5056213;28;20231;-47
2021/12/01 12:15:36;;;;;;;6.43;2.30;;;9.10;99.90;;;;;;5056679;28;20505;-46
2021/12/01 12:18:02;;;;;;;5.33;1.90;;;9.10;99.90;;;;;;5056649;28;20215;-48
2021/12/01 12:20:33;;;;;;;4.87;1.83;;;9.00;99.90;;;;;;5056263;28;20188;-46
2021/12/01 12:23:08;;;;;;;3.67;2.00;;;9.00;99.90;;;;;;5056439;28;20172;-48
2021/12/01 12:25:38;;;;;;;7.87;1.80;;;9.00;99.90;;;;;;5056433;28;20183;-49
2021/12/01 12:28:39;;;;;;;5.13;1.73;;;9.00;99.90;;;;;;5056508;28;20171;-48
2021/12/01 12:31:19;;;;;;;7.30;2.63;;;9.00;99.90;;;;;;5056175;28;20288;-47
2021/12/01 12:33:57;;;;;;;5.67;1.97;;;9.00;99.90;;;;;;5056573;28;20226;-48
2021/12/01 12:36:45;;;;;;;6.73;1.93;;;9.00;99.90;;;;;;5056467;28;20656;-47
2021/12/01 12:39:21;;;;;;;8.27;1.73;;;9.00;99.90;;;;;;5056362;28;20244;-49
2021/12/01 12:41:57;;;;;;;3.57;1.80;;;9.00;99.90;;;;;;5056274;28;20208;-47
2021/12/01 12:44:31;;;;;;;2.57;1.30;;;8.90;99.90;;;;;;5056231;28;20230;-49
2021/12/01 12:47:06;;;;;;;2.87;1.33;;;8.90;99.90;;;;;;5055689;28;20730;-48
2021/12/01 12:49:39;;;;;;;2.83;1.57;;;8.90;99.90;;;;;;5038737;28;20188;-49
2021/12/01 12:52:23;;;;;;;6.80;1.50;;;8.90;99.90;;;;;;5056331;28;20204;-48
2021/12/01 12:54:53;;;;;;;3.73;1.23;;;8.90;99.90;;;;;;5056023;28;20219;-48
2021/12/01 12:57:19;;;;;;;3.27;1.33;;;8.90;99.90;;;;;;5056103;28;20177;-47
2021/12/01 12:59:45;;;;;;;5.30;1.60;;;8.90;99.90;;;;;;5038295;28;20164;-47
2021/12/01 13:02:11;;;;;;;4.47;1.90;;;8.80;99.90;;;;;;5055966;28;20196;-47
2021/12/01 13:04:52;;;;;;;2.63;1.53;;;8.80;99.90;;;;;;5056263;28;20203;-47
2021/12/01 13:07:30;;;;;;;4.93;1.50;;;8.90;99.90;;;;;;5056014;28;20267;-49
2021/12/01 13:10:22;;;;;;;3.37;1.87;;;8.80;99.90;;;;;;5055283;28;20188;-48
2021/12/01 13:13:18;;;;;;;6.27;1.20;;;8.80;99.90;;;;;;5055804;28;20200;-45